Current | Forecast
Updated: 6:30 PM EEST on June 26, 2017
Observed at L'viv, Ukraine
Temperature 23°C
Humidity 65%
Dew Point 16°C
Wind SSW at 11 km/h
Pressure 1011 hPa (Steady)
Conditions Mostly Cloudy
Visibility 10.0 kilometers
UV 1 out of 16
Clouds Scattered Clouds (SCT) : 792 m
Mostly Cloudy (BKN) : 3048 m
Yesterday's Maximum 28°C
Yesterday's Minimum 13°C approx.
Yesterday's Cooling Degree Days 4 approx.
Sunrise5:22 AM EEST
Sunset9:38 PM EEST
Moon Rise8:09 AM EEST
Moon Set11:25 PM EEST
Moon PhaseMoon Phase
Waxing Crescent
Raw METARMETAR UKLL 261530Z 21003MPS 9999 SCT026 BKN100 23/16 Q1011 R31/CLRD// NOSIG


Monday
. High: 62° F.
Tuesday
. High: 66° F.
Wednesday
. High: 77° F.
Thursday
. High: 82° F.
Friday
. High: 68° F.
Saturday
. High: 66° F.
Sunday
. High: 71° F.
Monday
. High: 75° F.

Units: English | Metric

Find the Weather for any City, State or Zipcode, or Country:

U.S. State List | Severe Weather | Tropical Storms | Ski Conditions
United States | Canada | Central America | South America | Asia | Europe | Australia | Africa | Islands

Weather Underground

© Copyright 2017
The Weather Company, LLC